Oakhurst, OK (74050)

9:31 PM CDT on September 16, 2014 (GMT -0500)
Brookside | Change Station
CLOSE
Current Station
Personal Weather Station
Location: Tulsa, OK
Elevation: 653 ft
Nearby Weather Stations
4.0 Earthquake: Guthrie, Oklahoma (1 day ago)  

Elev 653 ft 36.10 °N, 95.98 °W | Updated 1 minute ago

Clear
Clear
70.0 °F
Feels Like 70.0 °F
N
0.0
Wind Variable Wind from North
Gusts 0.0 mph

Today
High -- | Low -- °F
--% Chance of Precip.
Yesterday
High -- | Low -- °F
Precip. -- in
7:07 AM 7:29 PM
Last Quarter, 40% visible
Pressure 30.03 in
Visibility 10.0 miles
Clouds Clear
Dew Point 68 °F
Humidity 93%
Rainfall 0.00 in
Snow Depth Not available.
UV 0 out of 12
Pollen 9.30 out of 12
Ozone Good
Flu Activity Not available.
METAR KRVS 170053Z 09003KT 10SM CLR 22/19 A3001 RMK AO2 SLP167 T02220189

More Conditions Fewer Conditions

Pressure 30.03 in
Visibility 10.0 miles
Clouds Clear
Dew Point 68 °F
Humidity 93%
Rainfall 0.00 in
Snow Depth Not available.
UV 0 out of 12
Pollen 9.30 out of 12
Ozone Good
Flu Activity Not available.
METAR KRVS 170053Z 09003KT 10SM CLR 22/19 A3001 RMK AO2 SLP167 T02220189

More Conditions Fewer Conditions

10-Day Weather Forecast

Almanac

Astronomy

Sep. 16, 2014 Rise Set
Actual Time 7:07 AM CDT 7:29 PM CDT
Civil Twilight 6:41 AM CDT 7:55 PM CDT
Nautical Twilight 6:11 AM CDT 8:25 PM CDT
Astronomical Twilight 5:40 AM CDT 8:56 PM CDT
Moon 12:26 AM CDT (9/16) 2:46 PM CDT (9/16)
Length of Visible Light 13h 13m
Length of Day
12h 22m
Tomorrow will be 2m 16s shorter.
Last Quarter, 40% of the Moon is Illuminated
Today
Last Quarter
Sep 24
New
Oct 1
First Quarter
Oct 8
Full
Oct 15
Last Quarter

Today's Extremes

State Highs State Lows

Community

WunderPhotos

Upload Photos

1,753,949 photos uploaded!

Nearby

Air Quality

  Air Quality AQ Index Pollutant
Yesterday Good
OZONE
Current Good
OZONE
Tuesday Moderate
PM2.5
Tuesday Good
OZONE
Wednesday Moderate
PM2.5
Wednesday Good
OZONE
Thursday Moderate
PM2.5
Thursday Good
OZONE
Friday Good
PM2.5
Friday Good
OZONE
Saturday Good
PM2.5
Saturday Good
OZONE
Sunday Good
PM2.5
Sunday Good
OZONE

Snow Depth

Station Depth Elevation
No new snow has been reported.

Earthquake Activity

City Distance Mag. Time & Date
Medford, Oklahoma 104 miles 3.3 5:35 PM CDT
2014-09-16
Yale, Oklahoma 41 miles 2.5 9:31 AM CDT
2014-09-16
Yale, Oklahoma 41 miles 2.8 8:49 AM CDT
2014-09-16
Stillwater, Oklahoma 47 miles 2.5 8:38 AM CDT
2014-09-16
Minimum magnitude displayed is 2.5.

Coastal Water Temperatures

Place Temperature
No Stations Reporting

Nearby Weather Stations